Etusivu
METAR-TAF:

METAR-TAF

Lentoasemat :

Hemavan, Ruotsi

Leveyspiiri: 65-48-22N, Pituuspiiri: 015-04-58E, korkeus merenpinnasta: 458 m

Tämänhetkinen sää

Tämä raportti tehtiin 12 minuuttia sitten, kello 04.50 UTC
Tuuli 5 kn pohjoisesta, vaihdellen luoteen ja pohjoisen/koillisen välillä
Lämpötila 4°C
Kosteus 75%
Ilmanpaine 1013 hPa
Näkyvyys 10 km tai enemmän

METAR: ESUT 230450Z AUTO 35005KT 320V020 9999 NCD 04/00 Q1013

Aika: 07:02 (05:02 UTC)


TAF: puuttuu

Säähavainnot ja -ennusteet yli 4000 lentoasemalta (METAR- ja TAF-raportit).

Käytössä olevat sääasemat on merkitty karttaan keltaisilla ja punaisilla pisteillä.

Aseta hiiri pisteen päälle nähdäksesi sääaseman nimen.

Klikkaa sitten nähdäksesi säähavainnot ja -ennusteet.

Kartan vaihtaminen: klikkaa mustalla rastilla varustettuja vihreitä pisteitä, niin voit zoomata sisään; viivalla varustettua vihreää pistettä, niin voit zoomata ulos tai vihreitä nuolia, niin pääset viereisille kartoille.


METAR-TAF: